Time;durP1;ratioP1;P1;durP2;ratioP2;P2;SDS_P1;SDS_P2;PMS_P1;PMS_P2;Temp;Humidity;BMP_temperature;BMP_pressure;BME280_temperature;BME280_humidity;BME280_pressure;Samples;Min_cycle;Max_cycle;Signal;HPM_P1;HPM_P2
2022/04/22 00:00:28;;;;;;;19.87;10.50;;;;;;;;;;5001202;28;20221;-76
2022/04/22 00:02:55;;;;;;;18.47;10.50;;;;;;;;;;4993157;28;20193;-76
2022/04/22 00:05:23;;;;;;;19.83;10.53;;;;;;;;;;4997262;28;20208;-76
2022/04/22 00:07:50;;;;;;;16.90;9.83;;;;;;;;;;4994615;28;20196;-76
2022/04/22 00:10:17;;;;;;;19.10;10.37;;;;;;;;;;4991977;28;20581;-76
2022/04/22 00:12:44;;;;;;;19.73;10.37;;;;;;;;;;5000510;28;20216;-76
2022/04/22 00:15:14;;;;;;;19.10;9.70;;;;;;;;;;5001228;28;20208;-76
2022/04/22 00:17:42;;;;;;;20.87;9.80;;;;;;;;;;5000862;28;20248;-76
2022/04/22 00:20:11;;;;;;;17.10;9.37;;;;;;;;;;4995323;28;20293;-75
2022/04/22 00:22:39;;;;;;;19.57;10.13;;;;;;;;;;4990862;28;20390;-75
2022/04/22 00:25:07;;;;;;;22.60;10.57;;;;;;;;;;4987193;28;20211;-74
2022/04/22 00:27:34;;;;;;;18.17;9.80;;;;;;;;;;4993533;28;20205;-74
2022/04/22 00:30:01;;;;;;;19.37;10.23;;;;;;;;;;4994244;28;20243;-75
2022/04/22 00:32:33;;;;;;;18.37;9.43;;;;;;;;;;4993589;28;20303;-74
2022/04/22 00:35:00;;;;;;;18.30;10.07;;;;;;;;;;4995347;28;20317;-75
2022/04/22 00:37:28;;;;;;;22.73;9.83;;;;;;;;;;4992687;28;20211;-75
2022/04/22 00:39:55;;;;;;;21.87;10.87;;;;;;;;;;4991668;28;20200;-75
2022/04/22 00:42:22;;;;;;;25.67;12.40;;;;;;;;;;4993778;28;20228;-75
2022/04/22 00:44:49;;;;;;;26.23;12.73;;;;;;;;;;4995875;28;20287;-76
2022/04/22 00:47:16;;;;;;;29.67;12.50;;;;;;;;;;4994792;28;20212;-76
2022/04/22 00:49:45;;;;;;;21.47;11.07;;;;;;;;;;4990346;28;20201;-76
2022/04/22 00:52:12;;;;;;;24.43;12.57;;;;;;;;;;4992136;28;20303;-75
2022/04/22 00:54:39;;;;;;;26.27;13.07;;;;;;;;;;4994326;28;20279;-76
2022/04/22 00:57:09;;;;;;;25.30;11.73;;;;;;;;;;4997324;28;20211;-77
2022/04/22 00:59:37;;;;;;;28.80;13.93;;;;;;;;;;4994077;28;20226;-74
2022/04/22 01:02:05;;;;;;;27.90;13.57;;;;;;;;;;4993707;28;20229;-75
2022/04/22 01:10:04;;;;;;;31.33;13.93;;;;;;;;;;4993148;28;20215;-76
2022/04/22 01:12:31;;;;;;;32.80;14.30;;;;;;;;;;4993093;28;20569;-76
2022/04/22 01:14:59;;;;;;;30.23;15.17;;;;;;;;;;4991376;28;20212;-76
2022/04/22 01:17:26;;;;;;;34.73;16.00;;;;;;;;;;4988795;28;20295;-75
2022/04/22 01:19:55;;;;;;;31.17;15.63;;;;;;;;;;4997997;28;20514;-74
2022/04/22 01:22:23;;;;;;;34.90;15.17;;;;;;;;;;4994618;28;20256;-75
2022/04/22 01:24:53;;;;;;;33.00;15.67;;;;;;;;;;4993972;28;20685;-75
2022/04/22 01:27:20;;;;;;;34.90;15.27;;;;;;;;;;4992126;28;20753;-75
2022/04/22 01:29:48;;;;;;;34.90;15.70;;;;;;;;;;5008579;22;20222;-78
2022/04/22 01:32:15;;;;;;;31.97;15.17;;;;;;;;;;4980893;28;20713;-80
2022/04/22 01:34:42;;;;;;;33.07;16.27;;;;;;;;;;4981950;28;20276;-79
2022/04/22 01:37:09;;;;;;;34.83;16.03;;;;;;;;;;4981128;28;20240;-80
2022/04/22 01:39:38;;;;;;;33.00;15.47;;;;;;;;;;4984175;28;20218;-78
2022/04/22 01:42:06;;;;;;;33.13;15.57;;;;;;;;;;4979636;28;20312;-79
2022/04/22 01:44:35;;;;;;;31.70;15.70;;;;;;;;;;4981442;28;20469;-80
2022/04/22 01:47:03;;;;;;;35.67;16.00;;;;;;;;;;4984480;28;20240;-78
2022/04/22 01:49:30;;;;;;;39.47;17.03;;;;;;;;;;4984142;28;20236;-79
2022/04/22 01:51:58;;;;;;;36.20;16.90;;;;;;;;;;4984351;28;20245;-79
2022/04/22 01:54:25;;;;;;;39.43;17.47;;;;;;;;;;4986618;28;20237;-79
2022/04/22 01:56:54;;;;;;;33.37;17.37;;;;;;;;;;4991630;28;20627;-80
2022/04/22 01:59:21;;;;;;;37.63;16.43;;;;;;;;;;4996609;28;20261;-81
2022/04/22 02:01:48;;;;;;;33.97;15.80;;;;;;;;;;4990466;28;20255;-78
2022/04/22 02:04:16;;;;;;;34.23;16.37;;;;;;;;;;4992814;28;20205;-79
2022/04/22 02:06:43;;;;;;;38.13;16.87;;;;;;;;;;4987505;28;20205;-78
2022/04/22 02:09:10;;;;;;;35.50;16.73;;;;;;;;;;4989007;28;20240;-79
2022/04/22 02:11:40;;;;;;;36.07;16.97;;;;;;;;;;4990935;28;20248;-77
2022/04/22 02:14:09;;;;;;;35.07;15.47;;;;;;;;;;4989013;28;20225;-79
2022/04/22 02:16:36;;;;;;;33.07;14.93;;;;;;;;;;4990998;28;20287;-79
2022/04/22 02:19:04;;;;;;;32.87;15.47;;;;;;;;;;4989408;28;20209;-79
2022/04/22 02:21:31;;;;;;;34.20;15.93;;;;;;;;;;4987980;28;20228;-78
2022/04/22 02:23:58;;;;;;;31.70;15.70;;;;;;;;;;4993081;28;20193;-78
2022/04/22 02:26:26;;;;;;;33.47;16.27;;;;;;;;;;4991912;28;20296;-80
2022/04/22 02:28:52;;;;;;;39.13;15.13;;;;;;;;;;4987178;28;20681;-78
2022/04/22 02:31:21;;;;;;;35.97;16.33;;;;;;;;;;4986337;28;20238;-80
2022/04/22 02:33:48;;;;;;;34.77;16.23;;;;;;;;;;4988664;28;20235;-78
2022/04/22 02:36:16;;;;;;;36.40;15.77;;;;;;;;;;4987268;28;20196;-77
2022/04/22 02:38:44;;;;;;;32.40;15.30;;;;;;;;;;4986328;28;20205;-78
2022/04/22 02:46:42;;;;;;;30.07;15.00;;;;;;;;;;4985801;28;20340;-79
2022/04/22 02:49:10;;;;;;;30.83;14.67;;;;;;;;;;4979924;28;20209;-77
2022/04/22 02:51:37;;;;;;;32.90;15.40;;;;;;;;;;4984465;28;20318;-78
2022/04/22 02:54:04;;;;;;;30.90;13.57;;;;;;;;;;4984283;28;20308;-78
2022/04/22 02:56:31;;;;;;;25.57;13.37;;;;;;;;;;4981883;28;20296;-78
2022/04/22 02:58:59;;;;;;;28.60;13.10;;;;;;;;;;4986203;28;20277;-78
2022/04/22 03:01:26;;;;;;;28.40;13.20;;;;;;;;;;4980155;28;20228;-77
2022/04/22 03:03:55;;;;;;;28.33;13.33;;;;;;;;;;4981429;28;20575;-77
2022/04/22 03:06:24;;;;;;;31.23;13.40;;;;;;;;;;4982498;28;20221;-79
2022/04/22 03:08:51;;;;;;;28.13;12.57;;;;;;;;;;4981551;28;20220;-78
2022/04/22 03:11:21;;;;;;;25.43;12.33;;;;;;;;;;4986077;28;20236;-79
2022/04/22 03:13:49;;;;;;;29.53;12.40;;;;;;;;;;4982987;28;20229;-79
2022/04/22 03:16:17;;;;;;;25.33;11.87;;;;;;;;;;4980882;28;20252;-79
2022/04/22 03:18:44;;;;;;;26.63;12.20;;;;;;;;;;4982102;28;20201;-80
2022/04/22 03:21:13;;;;;;;26.07;12.67;;;;;;;;;;4983548;28;20308;-77
2022/04/22 03:23:40;;;;;;;25.90;12.00;;;;;;;;;;4986715;28;20198;-79
2022/04/22 03:26:08;;;;;;;25.30;11.50;;;;;;;;;;4984809;28;20405;-77
2022/04/22 03:28:35;;;;;;;24.10;11.27;;;;;;;;;;4983845;28;20299;-78
2022/04/22 03:31:02;;;;;;;25.70;11.60;;;;;;;;;;4980779;28;20647;-77
2022/04/22 03:33:29;;;;;;;26.20;11.87;;;;;;;;;;4983785;28;20205;-79
2022/04/22 03:35:57;;;;;;;22.20;10.33;;;;;;;;;;4985466;28;20208;-80
2022/04/22 03:38:27;;;;;;;21.47;10.37;;;;;;;;;;4985903;28;20225;-79
2022/04/22 03:40:54;;;;;;;19.47;10.23;;;;;;;;;;4987741;28;20265;-79
2022/04/22 03:43:23;;;;;;;24.97;11.07;;;;;;;;;;4994617;28;20228;-79
2022/04/22 03:45:50;;;;;;;23.20;11.00;;;;;;;;;;4986616;28;20247;-78
2022/04/22 03:48:17;;;;;;;20.10;9.97;;;;;;;;;;4981401;28;20220;-79
2022/04/22 03:50:44;;;;;;;22.37;10.70;;;;;;;;;;4983402;28;20263;-78
2022/04/22 03:53:12;;;;;;;22.53;10.83;;;;;;;;;;4983676;28;20212;-78
2022/04/22 03:55:42;;;;;;;22.87;10.57;;;;;;;;;;4984613;28;20283;-78
2022/04/22 03:58:11;;;;;;;20.53;10.80;;;;;;;;;;4977554;28;20679;-78
2022/04/22 04:00:39;;;;;;;21.83;10.10;;;;;;;;;;4981189;28;20228;-79
2022/04/22 04:03:07;;;;;;;22.57;10.37;;;;;;;;;;4978479;28;20239;-79
2022/04/22 04:05:34;;;;;;;23.63;10.90;;;;;;;;;;4983314;28;20232;-79
2022/04/22 04:08:01;;;;;;;23.60;11.03;;;;;;;;;;4975123;28;20233;-77
2022/04/22 04:15:59;;;;;;;22.27;10.80;;;;;;;;;;4978033;28;20302;-77
2022/04/22 04:18:26;;;;;;;22.63;10.77;;;;;;;;;;4972797;28;20205;-78
2022/04/22 04:23:38;;;;;;;26.23;11.93;;;;;;;;;;4978609;28;20322;-77
2022/04/22 04:26:06;;;;;;;21.70;11.37;;;;;;;;;;4976305;28;20216;-78
2022/04/22 04:28:35;;;;;;;24.67;11.57;;;;;;;;;;4986455;28;20861;-78
2022/04/22 04:31:02;;;;;;;24.60;11.50;;;;;;;;;;4979355;28;20228;-79
2022/04/22 04:33:30;;;;;;;26.23;12.33;;;;;;;;;;4982370;28;20208;-77
2022/04/22 04:35:58;;;;;;;25.53;12.27;;;;;;;;;;4983383;28;20207;-78
2022/04/22 04:38:25;;;;;;;24.67;12.00;;;;;;;;;;4986034;28;20235;-80
2022/04/22 04:40:52;;;;;;;24.50;12.07;;;;;;;;;;4979522;28;20233;-80
2022/04/22 04:43:20;;;;;;;24.47;11.83;;;;;;;;;;4984449;28;20296;-77
2022/04/22 04:45:50;;;;;;;24.33;12.57;;;;;;;;;;4987488;28;20212;-78
2022/04/22 04:48:18;;;;;;;25.57;12.17;;;;;;;;;;4984810;28;20652;-78
2022/04/22 04:50:45;;;;;;;25.10;12.13;;;;;;;;;;4982577;28;20256;-79
2022/04/22 04:53:13;;;;;;;27.33;12.13;;;;;;;;;;4981059;28;20209;-79
2022/04/22 04:55:40;;;;;;;22.13;11.23;;;;;;;;;;4989144;28;20318;-78
2022/04/22 04:58:07;;;;;;;22.43;11.37;;;;;;;;;;4990456;28;20208;-78
2022/04/22 05:00:35;;;;;;;23.20;12.03;;;;;;;;;;4986831;28;20302;-79
2022/04/22 05:03:04;;;;;;;27.07;12.43;;;;;;;;;;4983717;28;20205;-77
2022/04/22 05:05:32;;;;;;;24.87;12.13;;;;;;;;;;4986026;28;20621;-78
2022/04/22 05:08:00;;;;;;;25.63;12.53;;;;;;;;;;4985785;28;20679;-78
2022/04/22 05:10:28;;;;;;;21.83;12.00;;;;;;;;;;4978726;28;20224;-77
2022/04/22 05:12:56;;;;;;;24.53;12.50;;;;;;;;;;4973796;28;20205;-78
2022/04/22 05:15:23;;;;;;;28.03;12.73;;;;;;;;;;4973689;28;20225;-78
2022/04/22 05:17:51;;;;;;;24.00;11.93;;;;;;;;;;4983844;28;20208;-78
2022/04/22 05:20:21;;;;;;;22.23;12.13;;;;;;;;;;4980380;28;20213;-78
2022/04/22 05:22:48;;;;;;;23.83;12.30;;;;;;;;;;4984438;28;20290;-80
2022/04/22 05:25:16;;;;;;;21.20;11.57;;;;;;;;;;4984244;28;20197;-78
2022/04/22 05:27:43;;;;;;;20.60;10.90;;;;;;;;;;4998149;28;20211;-78
2022/04/22 05:32:56;;;;;;;18.57;10.80;;;;;;;;;;4987303;28;20221;-78
2022/04/22 05:35:26;;;;;;;17.27;10.07;;;;;;;;;;4983451;28;20233;-76
2022/04/22 05:37:54;;;;;;;21.00;10.97;;;;;;;;;;4985279;28;20205;-77
2022/04/22 05:40:22;;;;;;;22.03;10.37;;;;;;;;;;4980602;28;20703;-78
2022/04/22 05:42:50;;;;;;;17.93;10.03;;;;;;;;;;4982344;28;20209;-79
2022/04/22 05:45:18;;;;;;;15.67;9.70;;;;;;;;;;4981256;28;20205;-79
2022/04/22 05:47:45;;;;;;;16.53;9.27;;;;;;;;;;4992056;28;20217;-80
2022/04/22 05:50:14;;;;;;;19.77;9.07;;;;;;;;;;4990083;28;20213;-79
2022/04/22 05:52:43;;;;;;;19.70;9.63;;;;;;;;;;4983454;28;20208;-79
2022/04/22 05:55:12;;;;;;;15.70;9.63;;;;;;;;;;4983650;28;20233;-79
2022/04/22 05:57:40;;;;;;;15.40;8.97;;;;;;;;;;4986111;28;20263;-79
2022/04/22 06:00:08;;;;;;;17.00;9.57;;;;;;;;;;4983098;28;20587;-80
2022/04/22 06:02:35;;;;;;;15.90;9.47;;;;;;;;;;4983146;28;20327;-78
2022/04/22 06:05:03;;;;;;;15.77;9.83;;;;;;;;;;4984699;28;20307;-78
2022/04/22 06:07:30;;;;;;;15.83;9.20;;;;;;;;;;4983291;28;20205;-78
2022/04/22 06:12:43;;;;;;;17.77;9.90;;;;;;;;;;4983862;28;20212;-79
2022/04/22 06:15:11;;;;;;;17.67;9.90;;;;;;;;;;4979838;28;20320;-80
2022/04/22 06:17:38;;;;;;;22.40;11.07;;;;;;;;;;4978978;28;20272;-81
2022/04/22 06:20:05;;;;;;;17.67;9.57;;;;;;;;;;4982587;28;20586;-81
2022/04/22 06:22:33;;;;;;;18.40;10.13;;;;;;;;;;4981738;28;20370;-77
2022/04/22 06:25:01;;;;;;;18.90;9.97;;;;;;;;;;4977923;28;20201;-81
2022/04/22 06:27:29;;;;;;;20.77;10.83;;;;;;;;;;4982491;28;20674;-81
2022/04/22 06:29:57;;;;;;;20.10;10.37;;;;;;;;;;4981840;28;20218;-80
2022/04/22 06:32:26;;;;;;;23.07;9.73;;;;;;;;;;4979544;28;20264;-80
2022/04/22 06:34:53;;;;;;;18.40;10.27;;;;;;;;;;4979964;28;20730;-79
2022/04/22 06:37:21;;;;;;;17.97;9.83;;;;;;;;;;4984718;28;20289;-80
2022/04/22 06:48:11;;;;;;;17.57;10.00;;;;;;;;;;4986029;28;20299;-80
2022/04/22 06:50:39;;;;;;;18.30;10.10;;;;;;;;;;4984192;28;20749;-80
2022/04/22 06:53:06;;;;;;;17.63;10.00;;;;;;;;;;4983830;28;20496;-80
2022/04/22 06:55:34;;;;;;;17.90;9.97;;;;;;;;;;4979259;28;20312;-79
2022/04/22 06:58:04;;;;;;;24.47;10.47;;;;;;;;;;4979309;28;20205;-78
2022/04/22 07:00:31;;;;;;;20.00;11.53;;;;;;;;;;4983943;28;20221;-79
2022/04/22 07:02:58;;;;;;;19.13;10.50;;;;;;;;;;4983203;28;20283;-80
2022/04/22 07:05:26;;;;;;;20.80;10.63;;;;;;;;;;4981488;28;20288;-81
2022/04/22 07:07:53;;;;;;;19.07;10.40;;;;;;;;;;4985067;28;20244;-80
2022/04/22 07:10:22;;;;;;;22.43;10.77;;;;;;;;;;4988954;28;20307;-80
2022/04/22 07:12:49;;;;;;;18.03;10.43;;;;;;;;;;4985986;28;20210;-81
2022/04/22 07:15:18;;;;;;;17.80;9.93;;;;;;;;;;4990797;28;20221;-80
2022/04/22 07:17:46;;;;;;;16.40;9.80;;;;;;;;;;4988349;28;20288;-81
2022/04/22 07:20:13;;;;;;;15.67;9.47;;;;;;;;;;4984625;28;20244;-78
2022/04/22 07:22:42;;;;;;;19.40;10.10;;;;;;;;;;4982755;28;20265;-80
2022/04/22 07:25:11;;;;;;;17.03;10.47;;;;;;;;;;4988139;28;20205;-78
2022/04/22 07:27:39;;;;;;;16.27;9.60;;;;;;;;;;4984285;28;20271;-78
2022/04/22 07:30:07;;;;;;;17.20;9.83;;;;;;;;;;4997336;23;20221;-78
2022/04/22 07:32:37;;;;;;;17.40;9.83;;;;;;;;;;4997528;28;20244;-80
2022/04/22 07:35:05;;;;;;;16.77;10.90;;;;;;;;;;4999729;28;20280;-80
2022/04/22 07:37:33;;;;;;;15.67;9.50;;;;;;;;;;5001245;28;20296;-77
2022/04/22 07:40:01;;;;;;;17.53;9.90;;;;;;;;;;5002827;28;20200;-80
2022/04/22 07:42:28;;;;;;;17.03;10.40;;;;;;;;;;4997671;28;20292;-79
2022/04/22 07:47:46;;;;;;;17.83;10.13;;;;;;;;;;5001473;28;20541;-81
2022/04/22 07:50:14;;;;;;;19.63;10.20;;;;;;;;;;4996838;28;20297;-79
2022/04/22 07:52:44;;;;;;;16.53;9.80;;;;;;;;;;4997445;28;20276;-83
2022/04/22 07:55:12;;;;;;;16.60;9.63;;;;;;;;;;4996450;28;20239;-81
2022/04/22 07:57:40;;;;;;;19.10;10.17;;;;;;;;;;4999923;28;20205;-82
2022/04/22 08:00:08;;;;;;;16.37;9.83;;;;;;;;;;4999463;28;20201;-83
2022/04/22 08:02:40;;;;;;;15.03;9.33;;;;;;;;;;4998671;28;20291;-82
2022/04/22 08:05:09;;;;;;;14.77;9.60;;;;;;;;;;5004416;28;20205;-81
2022/04/22 08:07:36;;;;;;;15.40;9.50;;;;;;;;;;5001587;28;20291;-79
2022/04/22 08:10:04;;;;;;;14.87;9.63;;;;;;;;;;4999331;28;20227;-81
2022/04/22 08:12:31;;;;;;;14.07;9.53;;;;;;;;;;4997468;28;20211;-79
2022/04/22 08:14:59;;;;;;;15.53;9.63;;;;;;;;;;5001323;28;20236;-79
2022/04/22 08:17:26;;;;;;;16.70;10.13;;;;;;;;;;4992613;28;20206;-80
2022/04/22 08:19:53;;;;;;;15.13;9.83;;;;;;;;;;4992974;28;20295;-78
2022/04/22 08:22:22;;;;;;;14.93;9.53;;;;;;;;;;4996307;28;20789;-80
2022/04/22 08:24:49;;;;;;;19.07;11.17;;;;;;;;;;4993672;28;20749;-81
2022/04/22 08:27:17;;;;;;;17.90;10.37;;;;;;;;;;4996715;28;20319;-79
2022/04/22 08:29:44;;;;;;;18.83;11.20;;;;;;;;;;5001590;28;20208;-80
2022/04/22 08:32:11;;;;;;;13.93;9.80;;;;;;;;;;4996927;28;20232;-78
2022/04/22 08:34:38;;;;;;;20.77;11.50;;;;;;;;;;4990843;28;20295;-81
2022/04/22 08:37:06;;;;;;;17.03;11.13;;;;;;;;;;4992825;28;20323;-80
2022/04/22 08:39:34;;;;;;;15.00;9.67;;;;;;;;;;4992194;28;20296;-79
2022/04/22 08:42:02;;;;;;;15.63;9.37;;;;;;;;;;4993134;28;20221;-80
2022/04/22 08:44:30;;;;;;;15.23;9.53;;;;;;;;;;4993773;28;20216;-77
2022/04/22 08:50:02;;;;;;;16.23;10.20;;;;;;;;;;4993987;28;20670;-79
2022/04/22 08:52:31;;;;;;;18.73;10.27;;;;;;;;;;4996527;28;20208;-78
2022/04/22 08:55:00;;;;;;;17.70;11.13;;;;;;;;;;4993471;28;20231;-79
2022/04/22 08:57:29;;;;;;;16.60;9.90;;;;;;;;;;4992698;28;20208;-79
2022/04/22 08:59:59;;;;;;;17.47;10.67;;;;;;;;;;4996242;28;20212;-81
2022/04/22 09:02:27;;;;;;;17.37;10.53;;;;;;;;;;4992688;28;20254;-81
2022/04/22 09:04:54;;;;;;;21.67;12.37;;;;;;;;;;4986835;28;20290;-81
2022/04/22 09:07:22;;;;;;;23.83;12.07;;;;;;;;;;5000324;28;20259;-80
2022/04/22 09:09:50;;;;;;;18.67;11.53;;;;;;;;;;4993529;28;20208;-82
2022/04/22 09:12:21;;;;;;;21.03;11.50;;;;;;;;;;4988800;28;20221;-82
2022/04/22 09:14:49;;;;;;;20.63;11.53;;;;;;;;;;4995964;28;20219;-81
2022/04/22 09:17:19;;;;;;;21.80;12.00;;;;;;;;;;4992340;28;20243;-82
2022/04/22 09:19:46;;;;;;;21.77;12.07;;;;;;;;;;4992858;28;20263;-81
2022/04/22 09:22:19;;;;;;;22.90;12.47;;;;;;;;;;4989621;28;20728;-81
2022/04/22 09:24:50;;;;;;;21.83;11.97;;;;;;;;;;4988401;28;20205;-82
2022/04/22 09:27:18;;;;;;;20.97;12.63;;;;;;;;;;4994913;28;20221;-82
2022/04/22 09:29:53;;;;;;;22.00;12.77;;;;;;;;;;4985749;28;20560;-81
2022/04/22 09:32:24;;;;;;;27.90;13.10;;;;;;;;;;4984673;28;20250;-80
2022/04/22 09:34:51;;;;;;;23.00;11.47;;;;;;;;;;4983918;28;20329;-80
2022/04/22 09:42:50;;;;;;;21.60;12.13;;;;;;;;;;4995809;28;20208;-80
2022/04/22 09:45:19;;;;;;;19.73;11.50;;;;;;;;;;4997822;28;20201;-81
2022/04/22 09:47:56;;;;;;;19.13;11.80;;;;;;;;;;5002305;28;20219;-81
2022/04/22 09:50:39;;;;;;;21.00;11.93;;;;;;;;;;4997333;28;20245;-80
2022/04/22 09:53:07;;;;;;;23.03;11.97;;;;;;;;;;4994276;28;20212;-80
2022/04/22 09:55:36;;;;;;;22.77;12.67;;;;;;;;;;4997663;28;20232;-81
2022/04/22 09:58:03;;;;;;;19.50;11.37;;;;;;;;;;4996806;28;20201;-80
2022/04/22 10:00:34;;;;;;;20.77;11.90;;;;;;;;;;4996318;28;20320;-81
2022/04/22 10:03:01;;;;;;;20.87;11.60;;;;;;;;;;4990793;28;20443;-81
2022/04/22 10:05:31;;;;;;;19.30;11.57;;;;;;;;;;4991859;28;20209;-82
2022/04/22 10:08:00;;;;;;;23.37;13.03;;;;;;;;;;4995151;28;22268;-82
2022/04/22 10:10:30;;;;;;;20.13;12.13;;;;;;;;;;4995955;28;20306;-81
2022/04/22 10:12:58;;;;;;;21.80;12.43;;;;;;;;;;4993671;28;20200;-84
2022/04/22 10:15:29;;;;;;;20.83;11.90;;;;;;;;;;4989336;28;20233;-82
2022/04/22 10:17:59;;;;;;;21.90;12.43;;;;;;;;;;4996637;28;20213;-79
2022/04/22 10:20:27;;;;;;;24.17;13.33;;;;;;;;;;5005408;28;20307;-79
2022/04/22 10:22:54;;;;;;;23.57;12.40;;;;;;;;;;4995241;28;20273;-82
2022/04/22 10:25:21;;;;;;;21.80;12.10;;;;;;;;;;4990360;28;20295;-81
2022/04/22 10:27:50;;;;;;;23.00;13.10;;;;;;;;;;4994678;28;20213;-80
2022/04/22 10:30:17;;;;;;;22.90;13.10;;;;;;;;;;4994332;28;20204;-80
2022/04/22 10:32:45;;;;;;;21.20;12.27;;;;;;;;;;4995643;28;20609;-80
2022/04/22 10:35:14;;;;;;;21.53;12.40;;;;;;;;;;4998683;28;20211;-79
2022/04/22 10:37:45;;;;;;;23.20;12.40;;;;;;;;;;4997928;28;20312;-80
2022/04/22 10:40:19;;;;;;;20.73;12.60;;;;;;;;;;5002170;28;20256;-80
2022/04/22 10:42:47;;;;;;;19.70;12.17;;;;;;;;;;4997957;28;20210;-81
2022/04/22 10:47:59;;;;;;;21.77;11.90;;;;;;;;;;5004211;28;20202;-82
2022/04/22 10:50:30;;;;;;;21.27;12.10;;;;;;;;;;4995883;28;20801;-80
2022/04/22 10:53:01;;;;;;;18.80;11.50;;;;;;;;;;4995635;28;20205;-80
2022/04/22 10:55:29;;;;;;;21.93;11.90;;;;;;;;;;4994591;28;20208;-79
2022/04/22 10:58:11;;;;;;;22.97;12.00;;;;;;;;;;4994962;28;20205;-79
2022/04/22 11:00:38;;;;;;;21.00;11.90;;;;;;;;;;4987796;28;20237;-78
2022/04/22 11:03:12;;;;;;;24.03;12.40;;;;;;;;;;4992487;28;20245;-81
2022/04/22 11:05:46;;;;;;;19.30;11.70;;;;;;;;;;4991553;28;20238;-81
2022/04/22 11:08:26;;;;;;;19.57;11.37;;;;;;;;;;4987728;28;20220;-78
2022/04/22 11:11:07;;;;;;;19.90;11.40;;;;;;;;;;4993870;28;20232;-80
2022/04/22 11:13:34;;;;;;;19.60;11.33;;;;;;;;;;4994396;28;20687;-81
2022/04/22 11:16:06;;;;;;;18.20;10.83;;;;;;;;;;4994937;28;20765;-80
2022/04/22 11:18:34;;;;;;;17.13;9.97;;;;;;;;;;4997218;28;20204;-82
2022/04/22 11:21:04;;;;;;;18.50;10.40;;;;;;;;;;4997412;28;20227;-80
2022/04/22 11:23:36;;;;;;;16.57;10.27;;;;;;;;;;4996885;28;20829;-82
2022/04/22 11:26:03;;;;;;;17.40;9.60;;;;;;;;;;4997516;28;20204;-80
2022/04/22 11:28:32;;;;;;;16.00;10.23;;;;;;;;;;4988616;28;20268;-81
2022/04/22 11:31:00;;;;;;;22.40;10.57;;;;;;;;;;4990040;28;20260;-80
2022/04/22 11:33:29;;;;;;;22.10;10.63;;;;;;;;;;4994095;28;20212;-82
2022/04/22 11:35:57;;;;;;;21.97;10.30;;;;;;;;;;4989485;28;20213;-81
2022/04/22 11:38:26;;;;;;;13.90;8.73;;;;;;;;;;4988280;28;20205;-82
2022/04/22 11:40:53;;;;;;;16.10;9.57;;;;;;;;;;4998605;28;20252;-80
2022/04/22 11:43:21;;;;;;;16.77;9.60;;;;;;;;;;4997045;28;20219;-80
2022/04/22 11:45:49;;;;;;;16.13;9.67;;;;;;;;;;4989156;28;20216;-81
2022/04/22 11:48:21;;;;;;;16.07;9.80;;;;;;;;;;4996128;28;20204;-80
2022/04/22 11:50:48;;;;;;;14.77;8.07;;;;;;;;;;4996810;28;20785;-81
2022/04/22 11:53:16;;;;;;;18.27;9.80;;;;;;;;;;4996839;28;20205;-81
2022/04/22 11:55:45;;;;;;;17.13;8.97;;;;;;;;;;4997606;28;20217;-81
2022/04/22 11:58:13;;;;;;;17.33;9.40;;;;;;;;;;4990648;28;20210;-81
2022/04/22 12:06:13;;;;;;;16.63;9.50;;;;;;;;;;4996080;28;20211;-81
2022/04/22 12:08:51;;;;;;;15.17;9.07;;;;;;;;;;4996157;28;20205;-81
2022/04/22 12:11:19;;;;;;;14.90;9.07;;;;;;;;;;4988358;28;20231;-82
2022/04/22 12:13:47;;;;;;;14.63;9.17;;;;;;;;;;4990340;28;20919;-80
2022/04/22 12:16:19;;;;;;;13.73;8.63;;;;;;;;;;4992537;28;20228;-80
2022/04/22 12:18:48;;;;;;;17.53;8.67;;;;;;;;;;4995908;28;20600;-79
2022/04/22 12:21:16;;;;;;;16.50;8.67;;;;;;;;;;4990237;28;20259;-79
2022/04/22 12:23:44;;;;;;;14.23;8.77;;;;;;;;;;4999320;28;20201;-79
2022/04/22 12:26:19;;;;;;;15.43;9.17;;;;;;;;;;4987668;28;20668;-78
2022/04/22 12:29:01;;;;;;;12.80;7.90;;;;;;;;;;4989994;28;20288;-78
2022/04/22 12:31:29;;;;;;;15.20;8.83;;;;;;;;;;4994037;28;20240;-79
2022/04/22 12:33:59;;;;;;;15.60;8.93;;;;;;;;;;4994054;28;20212;-78
2022/04/22 12:36:27;;;;;;;18.87;9.70;;;;;;;;;;4992425;28;20232;-79
2022/04/22 12:38:54;;;;;;;16.40;10.00;;;;;;;;;;4996341;28;20748;-79
2022/04/22 12:41:22;;;;;;;17.13;10.17;;;;;;;;;;4991689;28;20912;-79
2022/04/22 12:43:50;;;;;;;14.17;9.00;;;;;;;;;;4995736;28;20204;-79
2022/04/22 12:52:09;;;;;;;14.47;8.73;;;;;;;;;;4994454;28;20878;-81
2022/04/22 12:54:37;;;;;;;16.33;9.40;;;;;;;;;;4994009;28;20276;-81
2022/04/22 12:57:05;;;;;;;15.60;8.60;;;;;;;;;;4993943;28;20215;-81
2022/04/22 12:59:42;;;;;;;19.47;9.80;;;;;;;;;;4996896;28;20212;-82
2022/04/22 13:02:12;;;;;;;15.60;9.87;;;;;;;;;;4995432;28;20255;-81
2022/04/22 13:04:52;;;;;;;14.77;9.20;;;;;;;;;;4994094;28;20235;-81
2022/04/22 13:07:19;;;;;;;13.33;9.20;;;;;;;;;;4996144;28;20264;-81
2022/04/22 13:09:47;;;;;;;17.23;9.60;;;;;;;;;;4996257;28;20331;-79
2022/04/22 13:12:14;;;;;;;16.07;9.23;;;;;;;;;;5000966;28;20228;-80
2022/04/22 13:14:41;;;;;;;16.90;10.60;;;;;;;;;;5004124;28;20200;-79
2022/04/22 13:17:18;;;;;;;16.03;10.03;;;;;;;;;;5002689;28;20220;-80
2022/04/22 13:19:46;;;;;;;18.57;10.07;;;;;;;;;;4998430;28;20266;-81
2022/04/22 13:22:13;;;;;;;17.27;10.30;;;;;;;;;;5002205;28;20300;-79
2022/04/22 13:24:44;;;;;;;16.03;10.30;;;;;;;;;;5008944;28;20208;-80
2022/04/22 13:27:11;;;;;;;16.30;10.00;;;;;;;;;;5011661;28;20209;-81
2022/04/22 13:29:38;;;;;;;17.97;9.43;;;;;;;;;;5012325;28;20204;-81
2022/04/22 13:32:06;;;;;;;15.87;10.27;;;;;;;;;;5014084;22;20563;-77
2022/04/22 13:34:33;;;;;;;15.23;9.77;;;;;;;;;;5000578;28;20229;-76
2022/04/22 13:37:01;;;;;;;15.80;9.93;;;;;;;;;;4994950;28;20221;-77
2022/04/22 13:39:28;;;;;;;15.67;9.30;;;;;;;;;;5002686;28;20301;-77
2022/04/22 13:41:56;;;;;;;19.00;11.10;;;;;;;;;;4998317;28;20231;-77
2022/04/22 13:52:35;;;;;;;15.63;9.70;;;;;;;;;;4997858;28;20216;-77
2022/04/22 13:55:02;;;;;;;16.63;10.60;;;;;;;;;;4995980;28;20292;-77
2022/04/22 13:57:29;;;;;;;15.00;9.50;;;;;;;;;;4998853;28;20286;-77
2022/04/22 13:59:57;;;;;;;16.87;9.23;;;;;;;;;;4998515;28;20209;-77
2022/04/22 14:02:24;;;;;;;16.57;10.17;;;;;;;;;;4998628;28;20235;-77
2022/04/22 14:04:51;;;;;;;16.53;9.57;;;;;;;;;;5001815;28;20204;-77
2022/04/22 14:07:18;;;;;;;15.30;9.37;;;;;;;;;;5000316;28;20233;-77
2022/04/22 14:09:46;;;;;;;14.87;8.90;;;;;;;;;;4998706;28;20659;-78
2022/04/22 14:12:14;;;;;;;12.33;8.17;;;;;;;;;;4999903;28;20332;-77
2022/04/22 14:14:41;;;;;;;13.93;9.07;;;;;;;;;;4999170;28;20209;-77
2022/04/22 14:17:08;;;;;;;14.03;8.77;;;;;;;;;;4996452;28;20597;-76
2022/04/22 14:19:36;;;;;;;11.57;7.67;;;;;;;;;;4999532;28;20213;-76
2022/04/22 14:22:04;;;;;;;14.53;9.07;;;;;;;;;;5000252;28;20653;-78
2022/04/22 14:24:31;;;;;;;16.20;9.77;;;;;;;;;;4996800;28;20683;-77
2022/04/22 14:27:02;;;;;;;13.00;8.90;;;;;;;;;;4999546;28;20585;-78
2022/04/22 14:29:29;;;;;;;14.40;8.40;;;;;;;;;;4998555;28;20232;-77
2022/04/22 14:31:56;;;;;;;13.03;8.23;;;;;;;;;;5000322;28;20319;-78
2022/04/22 14:34:25;;;;;;;14.33;9.10;;;;;;;;;;4999477;28;20204;-77
2022/04/22 14:36:53;;;;;;;15.27;8.00;;;;;;;;;;4999798;28;20228;-78
2022/04/22 14:39:20;;;;;;;15.07;8.70;;;;;;;;;;4996060;28;20220;-78
2022/04/22 14:41:47;;;;;;;15.33;8.30;;;;;;;;;;4998317;28;20483;-78
2022/04/22 14:44:16;;;;;;;13.33;8.37;;;;;;;;;;5001545;28;20303;-78
2022/04/22 14:46:43;;;;;;;12.43;8.30;;;;;;;;;;4996495;28;20283;-77
2022/04/22 14:49:14;;;;;;;12.60;7.63;;;;;;;;;;5001012;28;20213;-78
2022/04/22 14:51:42;;;;;;;11.87;7.80;;;;;;;;;;4990600;28;20231;-78
2022/04/22 14:54:09;;;;;;;11.93;7.50;;;;;;;;;;4991196;28;20215;-78
2022/04/22 14:56:44;;;;;;;12.43;8.10;;;;;;;;;;4991654;28;20219;-77
2022/04/22 14:59:11;;;;;;;19.17;10.67;;;;;;;;;;4995569;28;20204;-77
2022/04/22 15:01:40;;;;;;;17.03;10.57;;;;;;;;;;4989515;28;20224;-77
2022/04/22 15:04:07;;;;;;;15.90;10.70;;;;;;;;;;4991416;28;20231;-77
2022/04/22 15:06:43;;;;;;;17.23;10.27;;;;;;;;;;4992715;28;20205;-77
2022/04/22 15:09:10;;;;;;;17.20;9.60;;;;;;;;;;4994830;28;20275;-77
2022/04/22 15:11:37;;;;;;;17.10;9.93;;;;;;;;;;4997985;28;20243;-77
2022/04/22 15:14:05;;;;;;;18.23;10.37;;;;;;;;;;4996289;28;20210;-77
2022/04/22 15:16:32;;;;;;;17.50;10.10;;;;;;;;;;4996035;28;20291;-77
2022/04/22 15:24:38;;;;;;;19.60;11.77;;;;;;;;;;4994786;28;20247;-77
2022/04/22 15:27:06;;;;;;;20.73;11.53;;;;;;;;;;4998134;28;20207;-77
2022/04/22 15:29:34;;;;;;;19.50;11.97;;;;;;;;;;4995806;28;20209;-78
2022/04/22 15:32:03;;;;;;;18.13;11.20;;;;;;;;;;4999343;28;20240;-77
2022/04/22 15:34:31;;;;;;;19.20;11.53;;;;;;;;;;5000257;28;20216;-77
2022/04/22 15:36:59;;;;;;;19.27;11.43;;;;;;;;;;4998515;28;20205;-78
2022/04/22 15:39:26;;;;;;;19.03;11.83;;;;;;;;;;4996192;28;20563;-77